Troutdale, OR

3:07 PM PDT on April 26, 2017 (GMT -0700)
Strawberry Meadows | | Change Station

Elev 187 ft 45.53 °N, 122.38 °W | Updated 1 minute ago

Mostly Cloudy
Mostly Cloudy
56.5 °F
Feels Like 56.5 °F
N
4.0
Wind Variable Wind from SSW

Today
High -- | Low -- °F
--% Chance of Precip.
Yesterday
High -- | Low -- °F
Precip. -- in
Pressure 29.93 in
Visibility 10.0 miles
Clouds Few 3200 ft
Scattered Clouds 6000 ft
Mostly Cloudy 7500 ft
Dew Point 50 °F
Humidity 81%
Rainfall 0.49 in
Snow Depth Not available.
6:04 AM 8:10 PM
New Moon, 0% visible
METAR KTTD 262153Z 25005KT 10SM FEW032 SCT060 BKN075 13/09 A2993 RMK AO2 RAB07E29 SLP135 P0012 T01330094
Pressure 29.93 in
Visibility 10.0 miles
Clouds Few 3200 ft
Scattered Clouds 6000 ft
Mostly Cloudy 7500 ft
Dew Point 50 °F
Humidity 81%
Rainfall 0.49 in
Snow Depth Not available.
6:04 AM 8:10 PM
New Moon, 0% visible
METAR KTTD 262153Z 25005KT 10SM FEW032 SCT060 BKN075 13/09 A2993 RMK AO2 RAB07E29 SLP135 P0012 T01330094

Get Severe Weather Alerts

Thanks for signing up!

Be on the lookout for a verification email in your inbox.

You'll start receiving the daily forecast at 8 AM.

×

10-Day Weather Forecast

Almanac

Astronomy

Apr. 26, 2017 Rise Set
Actual Time
Civil Twilight
Nautical Twilight
Astronomical Twilight
Moon
Length of Visible Light
Length of Day
Tomorrow will be .
, % of the Moon is Illuminated

Today's Extremes

State Highs State Lows

Community

WunderPhotos

WunderBlog® & News

Nearby

Air Quality

  Air Quality AQ Index Pollutant
Not available.

Snow Depth

Station Depth Elevation

Earthquake Activity

City Distance Mag. Time & Date
Minimum magnitude displayed is 2.5.

Coastal Water Temperatures

Place Temperature

Stations

Nearby Weather Stations

Station Location Temp. Windchill Dew Point Humidity Wind Precip. Elev Updated Type
                   

Watches & Warnings

There are currently no watches in effect.